Time;durP1;ratioP1;P1;durP2;ratioP2;P2;SDS_P1;SDS_P2;PMS_P1;PMS_P2;Temp;Humidity;BMP_temperature;BMP_pressure;BME280_temperature;BME280_humidity;BME280_pressure;Samples;Min_cycle;Max_cycle;Signal;HPM_P1;HPM_P2
2021/03/01 00:01:13;;;;;;;49.05;24.33;;;;;;;;;;5091442;28;20204;-49
2021/03/01 00:03:40;;;;;;;60.13;22.10;;;;;;;;;;5091276;28;20166;-49
2021/03/01 00:06:05;;;;;;;53.38;24.40;;;;;;;;;;5091207;28;20202;-49
2021/03/01 00:08:31;;;;;;;45.77;23.87;;;;;;;;;;5090891;28;20185;-49
2021/03/01 00:10:57;;;;;;;51.40;23.63;;;;;;;;;;5091258;28;20407;-49
2021/03/01 00:13:25;;;;;;;53.10;22.37;;;;;;;;;;5092838;28;20434;-51
2021/03/01 00:15:52;;;;;;;47.92;21.95;;;;;;;;;;5091630;28;20472;-52
2021/03/01 00:18:18;;;;;;;63.40;24.02;;;;;;;;;;5090701;28;20195;-50
2021/03/01 00:20:44;;;;;;;37.83;22.27;;;;;;;;;;5090408;28;20252;-50
2021/03/01 00:23:10;;;;;;;47.27;22.60;;;;;;;;;;5091051;28;20410;-52
2021/03/01 00:25:38;;;;;;;56.08;23.67;;;;;;;;;;5090935;28;20490;-49
2021/03/01 00:28:05;;;;;;;40.15;20.88;;;;;;;;;;5090676;28;20193;-49
2021/03/01 00:30:31;;;;;;;66.15;23.65;;;;;;;;;;5090851;28;20169;-51
2021/03/01 00:32:57;;;;;;;49.80;22.50;;;;;;;;;;5090919;28;20566;-48
2021/03/01 00:35:23;;;;;;;58.90;20.00;;;;;;;;;;5090678;28;20415;-48
2021/03/01 00:37:49;;;;;;;39.20;20.60;;;;;;;;;;5090553;28;21149;-48
2021/03/01 00:40:15;;;;;;;53.90;22.20;;;;;;;;;;5090795;28;20455;-49
2021/03/01 00:42:41;;;;;;;41.30;21.00;;;;;;;;;;5090771;28;20883;-49
2021/03/01 00:45:07;;;;;;;52.47;23.23;;;;;;;;;;5090251;28;20180;-49
2021/03/01 00:47:33;;;;;;;42.92;21.10;;;;;;;;;;5090357;28;20738;-49
2021/03/01 00:49:59;;;;;;;51.50;22.47;;;;;;;;;;5090742;28;20238;-49
2021/03/01 00:52:25;;;;;;;36.87;18.90;;;;;;;;;;5090642;28;20412;-48
2021/03/01 00:54:51;;;;;;;42.57;20.43;;;;;;;;;;5090734;28;20407;-49
2021/03/01 00:57:17;;;;;;;38.70;18.42;;;;;;;;;;5090371;28;20408;-49
2021/03/01 00:59:44;;;;;;;64.15;19.80;;;;;;;;;;5090402;28;20204;-51
2021/03/01 01:02:10;;;;;;;42.57;18.60;;;;;;;;;;5090578;28;20693;-51
2021/03/01 01:04:36;;;;;;;59.77;20.40;;;;;;;;;;5090563;28;20410;-51
2021/03/01 01:07:02;;;;;;;36.37;19.60;;;;;;;;;;5090488;28;20620;-52
2021/03/01 01:09:28;;;;;;;35.20;19.98;;;;;;;;;;5090526;28;20459;-48
2021/03/01 01:11:54;;;;;;;44.80;21.20;;;;;;;;;;5090632;28;20193;-48
2021/03/01 01:14:20;;;;;;;49.03;20.90;;;;;;;;;;5090227;28;20212;-48
2021/03/01 01:16:46;;;;;;;45.00;21.53;;;;;;;;;;5090390;28;20745;-49
2021/03/01 01:19:12;;;;;;;47.93;20.00;;;;;;;;;;5090009;28;20549;-51
2021/03/01 01:21:38;;;;;;;41.17;22.20;;;;;;;;;;5090323;28;20411;-51
2021/03/01 01:24:04;;;;;;;39.33;21.00;;;;;;;;;;5090320;28;20399;-52
2021/03/01 01:26:30;;;;;;;36.67;20.30;;;;;;;;;;5090290;28;20466;-51
2021/03/01 01:28:56;;;;;;;51.42;21.33;;;;;;;;;;5090175;28;20209;-51
2021/03/01 01:31:22;;;;;;;39.60;23.70;;;;;;;;;;5090719;28;20201;-51
2021/03/01 01:33:48;;;;;;;41.55;20.60;;;;;;;;;;5094398;28;20410;-49
2021/03/01 01:36:14;;;;;;;51.15;22.25;;;;;;;;;;5094125;28;20204;-51
2021/03/01 01:38:40;;;;;;;56.90;21.70;;;;;;;;;;5093873;28;20672;-48
2021/03/01 01:41:06;;;;;;;65.57;21.73;;;;;;;;;;5094020;28;20388;-49
2021/03/01 01:43:32;;;;;;;69.60;21.97;;;;;;;;;;5093796;28;20177;-49
2021/03/01 01:45:58;;;;;;;68.03;22.50;;;;;;;;;;5093912;28;20387;-49
2021/03/01 01:48:24;;;;;;;41.87;22.20;;;;;;;;;;5075507;28;20656;-49
2021/03/01 01:50:50;;;;;;;38.07;19.97;;;;;;;;;;5093884;28;20456;-49
2021/03/01 01:53:16;;;;;;;61.13;22.03;;;;;;;;;;5093752;28;20403;-49
2021/03/01 01:55:42;;;;;;;41.40;21.60;;;;;;;;;;5093770;28;20814;-49
2021/03/01 01:58:09;;;;;;;38.78;19.92;;;;;;;;;;5093323;28;20557;-49
2021/03/01 02:00:48;;;;;;;40.78;20.58;;;;;;;;;;5093731;28;20174;-49
2021/03/01 02:03:17;;;;;;;39.05;19.20;;;;;;;;;;5093052;28;20158;-48
2021/03/01 02:05:44;;;;;;;39.25;18.65;;;;;;;;;;5093136;28;20182;-48
2021/03/01 02:08:20;;;;;;;33.47;19.30;;;;;;;;;;5093161;28;20193;-52
2021/03/01 02:10:46;;;;;;;59.97;19.73;;;;;;;;;;5093646;28;20629;-48
2021/03/01 02:13:25;;;;;;;56.47;18.20;;;;;;;;;;5095579;28;20187;-49
2021/03/01 02:15:53;;;;;;;40.65;19.20;;;;;;;;;;5113984;28;20397;-49
2021/03/01 02:18:19;;;;;;;56.08;20.35;;;;;;;;;;5113513;28;20600;-49
2021/03/01 02:20:45;;;;;;;36.97;18.80;;;;;;;;;;5113961;28;20163;-48
2021/03/01 02:23:12;;;;;;;36.83;20.25;;;;;;;;;;5113977;28;20486;-48
2021/03/01 02:25:41;;;;;;;37.83;19.20;;;;;;;;;;5113736;28;20173;-51
2021/03/01 02:28:08;;;;;;;45.28;19.58;;;;;;;;;;5113649;28;20181;-48
2021/03/01 02:30:37;;;;;;;45.90;20.88;;;;;;;;;;5113768;28;20174;-50
2021/03/01 02:33:09;;;;;;;66.93;23.05;;;;;;;;;;5113645;28;20214;-48
2021/03/01 02:35:38;;;;;;;49.35;19.92;;;;;;;;;;5112486;28;20211;-48
2021/03/01 02:38:07;;;;;;;40.50;18.35;;;;;;;;;;5113104;28;20211;-48
2021/03/01 02:40:33;;;;;;;36.78;19.60;;;;;;;;;;5113406;28;20204;-49
2021/03/01 02:42:59;;;;;;;34.58;19.08;;;;;;;;;;5109477;28;20321;-49
2021/03/01 02:45:26;;;;;;;48.20;20.08;;;;;;;;;;5092687;28;20169;-49
2021/03/01 02:47:53;;;;;;;46.17;21.30;;;;;;;;;;5092448;28;20185;-51
2021/03/01 02:50:20;;;;;;;40.95;18.92;;;;;;;;;;5092762;28;20172;-49
2021/03/01 02:52:46;;;;;;;46.28;19.33;;;;;;;;;;5092600;28;20550;-49
2021/03/01 02:55:13;;;;;;;35.28;19.08;;;;;;;;;;5092570;28;20169;-52
2021/03/01 02:57:39;;;;;;;45.08;21.25;;;;;;;;;;5092043;28;20176;-52
2021/03/01 03:00:07;;;;;;;39.63;19.20;;;;;;;;;;5092471;28;20235;-51
2021/03/01 03:02:34;;;;;;;63.20;20.73;;;;;;;;;;5092367;28;20193;-49
2021/03/01 03:05:08;;;;;;;44.85;21.23;;;;;;;;;;5092494;28;20165;-49
2021/03/01 03:07:35;;;;;;;42.97;20.35;;;;;;;;;;5092036;28;20178;-49
2021/03/01 03:10:03;;;;;;;47.15;20.13;;;;;;;;;;5092401;28;20162;-52
2021/03/01 03:12:29;;;;;;;42.38;19.63;;;;;;;;;;5091936;28;20263;-49
2021/03/01 03:14:55;;;;;;;42.00;21.38;;;;;;;;;;5112648;28;20171;-52
2021/03/01 03:17:23;;;;;;;39.22;20.05;;;;;;;;;;5112331;28;20267;-49
2021/03/01 03:19:49;;;;;;;60.28;21.20;;;;;;;;;;5112165;28;20238;-48
2021/03/01 03:22:15;;;;;;;42.95;19.40;;;;;;;;;;5112533;28;20167;-49
2021/03/01 03:24:41;;;;;;;57.47;19.80;;;;;;;;;;5112536;28;20192;-51
2021/03/01 03:27:07;;;;;;;38.92;18.42;;;;;;;;;;5112174;28;20167;-51
2021/03/01 03:29:33;;;;;;;45.27;20.17;;;;;;;;;;5093940;28;20578;-51
2021/03/01 03:31:59;;;;;;;40.40;18.37;;;;;;;;;;5112769;28;20404;-49
2021/03/01 03:34:25;;;;;;;38.80;20.63;;;;;;;;;;5112096;28;20415;-48
2021/03/01 03:37:08;;;;;;;54.38;20.52;;;;;;;;;;5112063;28;20186;-53
2021/03/01 03:39:35;;;;;;;48.90;19.70;;;;;;;;;;5111996;28;20204;-50
2021/03/01 03:42:03;;;;;;;44.30;20.08;;;;;;;;;;5112145;28;20171;-52
2021/03/01 03:44:31;;;;;;;43.00;22.00;;;;;;;;;;5092071;28;20663;-51
2021/03/01 03:46:58;;;;;;;47.92;20.70;;;;;;;;;;5091192;28;20177;-52
2021/03/01 03:49:24;;;;;;;32.83;18.83;;;;;;;;;;5091577;28;20189;-51
2021/03/01 03:51:51;;;;;;;52.90;19.40;;;;;;;;;;5091443;28;20176;-49
2021/03/01 03:54:19;;;;;;;52.17;20.13;;;;;;;;;;5091385;28;20222;-49
2021/03/01 03:56:48;;;;;;;50.58;20.15;;;;;;;;;;5090608;28;20180;-49
2021/03/01 03:59:15;;;;;;;48.60;20.10;;;;;;;;;;5090990;28;20712;-50
2021/03/01 04:01:41;;;;;;;52.80;20.42;;;;;;;;;;5091320;28;20255;-52
2021/03/01 04:04:09;;;;;;;40.85;20.52;;;;;;;;;;5091416;28;20169;-51
2021/03/01 04:06:40;;;;;;;43.75;20.80;;;;;;;;;;5091259;28;20636;-48
2021/03/01 04:09:07;;;;;;;54.33;18.98;;;;;;;;;;5090938;28;20736;-50
2021/03/01 04:11:34;;;;;;;46.67;20.55;;;;;;;;;;5091272;28;20609;-49
2021/03/01 04:14:01;;;;;;;37.38;19.52;;;;;;;;;;5106176;28;20183;-51
2021/03/01 04:16:29;;;;;;;45.50;20.83;;;;;;;;;;5099339;28;20188;-49
2021/03/01 04:18:57;;;;;;;42.83;21.70;;;;;;;;;;5090786;28;20204;-49
2021/03/01 04:21:23;;;;;;;45.13;18.65;;;;;;;;;;5091115;28;20222;-49
2021/03/01 04:23:50;;;;;;;52.85;20.80;;;;;;;;;;5091138;28;20211;-49
2021/03/01 04:26:16;;;;;;;49.22;20.23;;;;;;;;;;5091283;28;20157;-49
2021/03/01 04:28:43;;;;;;;43.17;21.00;;;;;;;;;;5090998;28;20189;-49
2021/03/01 04:31:10;;;;;;;51.15;23.95;;;;;;;;;;5091068;28;20164;-52
2021/03/01 04:33:36;;;;;;;48.70;22.73;;;;;;;;;;5072910;28;20185;-49
2021/03/01 04:36:03;;;;;;;41.63;20.42;;;;;;;;;;5090955;28;20262;-49
2021/03/01 04:38:30;;;;;;;41.00;21.85;;;;;;;;;;5090644;28;20225;-49
2021/03/01 04:40:57;;;;;;;47.25;21.55;;;;;;;;;;5090846;28;20248;-48
2021/03/01 04:43:23;;;;;;;55.47;20.17;;;;;;;;;;5090737;28;20195;-51
2021/03/01 04:45:53;;;;;;;46.08;20.23;;;;;;;;;;5090755;28;20161;-51
2021/03/01 04:48:19;;;;;;;51.85;21.23;;;;;;;;;;5090530;28;20201;-48
2021/03/01 04:50:53;;;;;;;45.42;21.15;;;;;;;;;;5090940;28;20694;-52
2021/03/01 04:53:19;;;;;;;39.65;20.35;;;;;;;;;;5090525;28;20170;-51
2021/03/01 04:55:46;;;;;;;59.47;20.98;;;;;;;;;;5090568;28;20168;-50
2021/03/01 04:58:13;;;;;;;59.38;20.92;;;;;;;;;;5090519;28;20564;-48
2021/03/01 05:00:39;;;;;;;47.80;21.35;;;;;;;;;;5090618;28;20274;-48
2021/03/01 05:03:06;;;;;;;62.42;20.55;;;;;;;;;;5090613;28;20221;-49
2021/03/01 05:05:33;;;;;;;43.28;18.50;;;;;;;;;;5091913;28;20173;-49
2021/03/01 05:08:02;;;;;;;40.83;19.25;;;;;;;;;;5112717;28;20187;-48
2021/03/01 05:10:28;;;;;;;52.05;19.52;;;;;;;;;;5112754;28;20168;-49
2021/03/01 05:12:54;;;;;;;40.03;19.38;;;;;;;;;;5094540;28;20837;-49
2021/03/01 05:15:20;;;;;;;35.37;18.63;;;;;;;;;;5094651;28;20193;-49
2021/03/01 05:17:46;;;;;;;38.53;17.83;;;;;;;;;;5094298;28;20816;-49
2021/03/01 05:20:12;;;;;;;55.42;17.15;;;;;;;;;;5094386;28;20447;-49
2021/03/01 05:22:38;;;;;;;79.97;22.20;;;;;;;;;;5094403;28;20261;-51
2021/03/01 05:25:05;;;;;;;44.27;19.20;;;;;;;;;;5094334;28;20259;-49
2021/03/01 05:27:33;;;;;;;49.10;20.17;;;;;;;;;;5094467;28;20452;-50
2021/03/01 05:29:59;;;;;;;42.90;18.33;;;;;;;;;;5094178;28;20170;-49
2021/03/01 05:32:26;;;;;;;50.95;19.10;;;;;;;;;;5094211;28;20193;-51
2021/03/01 05:34:53;;;;;;;43.90;20.83;;;;;;;;;;5094098;28;20209;-50
2021/03/01 05:37:19;;;;;;;57.63;18.83;;;;;;;;;;5093856;28;20188;-49
2021/03/01 05:39:44;;;;;;;42.90;18.00;;;;;;;;;;5093902;28;20294;-48
2021/03/01 05:42:12;;;;;;;36.33;17.60;;;;;;;;;;5094078;28;20402;-49
2021/03/01 05:44:38;;;;;;;34.83;17.38;;;;;;;;;;5094112;28;20732;-49
2021/03/01 05:47:09;;;;;;;29.63;14.07;;;;;;;;;;5093761;28;20218;-48
2021/03/01 05:49:36;;;;;;;56.53;15.18;;;;;;;;;;5094021;28;20199;-50
2021/03/01 05:52:02;;;;;;;28.58;13.23;;;;;;;;;;5093386;28;20547;-51
2021/03/01 05:54:28;;;;;;;32.15;15.25;;;;;;;;;;5107314;28;20701;-52
2021/03/01 05:56:54;;;;;;;40.72;13.48;;;;;;;;;;5113849;28;20178;-51
2021/03/01 05:59:21;;;;;;;35.22;14.30;;;;;;;;;;5113903;28;20710;-52
2021/03/01 06:01:47;;;;;;;44.55;16.73;;;;;;;;;;5113983;28;20187;-50
2021/03/01 06:04:13;;;;;;;43.95;16.05;;;;;;;;;;5114114;28;20635;-51
2021/03/01 06:06:39;;;;;;;51.50;15.63;;;;;;;;;;5113897;28;20207;-49
2021/03/01 06:09:06;;;;;;;34.53;14.95;;;;;;;;;;5113978;28;20473;-49
2021/03/01 06:11:32;;;;;;;45.47;17.17;;;;;;;;;;5114141;28;20222;-49
2021/03/01 06:14:01;;;;;;;39.13;16.07;;;;;;;;;;5114043;28;20574;-49
2021/03/01 06:16:29;;;;;;;38.20;15.70;;;;;;;;;;5113861;28;20482;-49
2021/03/01 06:18:55;;;;;;;33.30;16.05;;;;;;;;;;5112361;28;20266;-51
2021/03/01 06:21:22;;;;;;;30.40;15.67;;;;;;;;;;5113827;28;20159;-49
2021/03/01 06:23:48;;;;;;;32.35;16.42;;;;;;;;;;5112213;28;20423;-49
2021/03/01 06:26:34;;;;;;;36.05;16.77;;;;;;;;;;5113762;28;20232;-49
2021/03/01 06:29:03;;;;;;;64.35;21.77;;;;;;;;;;5113219;28;20186;-52
2021/03/01 06:31:29;;;;;;;47.53;17.13;;;;;;;;;;5113505;28;20174;-49
2021/03/01 06:34:14;;;;;;;48.63;16.30;;;;;;;;;;5113523;28;20555;-48
2021/03/01 06:36:59;;;;;;;38.35;16.52;;;;;;;;;;5113359;28;20829;-49
2021/03/01 06:39:45;;;;;;;40.65;16.05;;;;;;;;;;5113169;28;20231;-49
2021/03/01 06:42:18;;;;;;;57.10;17.20;;;;;;;;;;5113205;28;20165;-48
2021/03/01 06:44:56;;;;;;;36.67;16.55;;;;;;;;;;5113187;28;20653;-49
2021/03/01 06:47:22;;;;;;;53.63;17.40;;;;;;;;;;5112965;28;20164;-49
2021/03/01 06:49:49;;;;;;;38.33;18.47;;;;;;;;;;5113006;28;20191;-51
2021/03/01 06:52:35;;;;;;;58.95;17.92;;;;;;;;;;5113130;28;20405;-48
2021/03/01 06:55:11;;;;;;;60.72;17.77;;;;;;;;;;5090837;28;20193;-49
2021/03/01 06:57:37;;;;;;;43.25;17.83;;;;;;;;;;5092121;28;20253;-50
2021/03/01 07:00:06;;;;;;;48.25;18.38;;;;;;;;;;5092575;28;20204;-51
2021/03/01 07:02:41;;;;;;;55.30;21.63;;;;;;;;;;5092459;28;20167;-51
2021/03/01 07:05:08;;;;;;;44.05;17.45;;;;;;;;;;5091889;28;20240;-51
2021/03/01 07:07:35;;;;;;;30.70;15.95;;;;;;;;;;5091512;28;20248;-52
2021/03/01 07:10:01;;;;;;;40.70;18.40;;;;;;;;;;5091635;28;20166;-51
2021/03/01 07:12:37;;;;;;;39.10;15.80;;;;;;;;;;5091785;28;20222;-49
2021/03/01 07:15:03;;;;;;;62.08;18.20;;;;;;;;;;5091671;28;20255;-49
2021/03/01 07:17:29;;;;;;;70.63;19.13;;;;;;;;;;5091768;28;20170;-52
2021/03/01 07:19:56;;;;;;;47.92;19.15;;;;;;;;;;5091990;28;20201;-52
2021/03/01 07:22:22;;;;;;;53.30;18.73;;;;;;;;;;5093021;28;20434;-50
2021/03/01 07:24:50;;;;;;;102.17;19.97;;;;;;;;;;5092080;28;20634;-50
2021/03/01 07:27:17;;;;;;;48.03;16.58;;;;;;;;;;5091798;28;20411;-49
2021/03/01 07:29:46;;;;;;;102.55;21.88;;;;;;;;;;5091860;28;20552;-48
2021/03/01 07:32:13;;;;;;;48.83;21.02;;;;;;;;;;5108284;28;20198;-52
2021/03/01 07:34:40;;;;;;;31.67;15.77;;;;;;;;;;5112371;28;20184;-49
2021/03/01 07:37:06;;;;;;;41.03;16.98;;;;;;;;;;5112189;28;20232;-48
2021/03/01 07:39:33;;;;;;;46.65;18.20;;;;;;;;;;5112037;28;20832;-48
2021/03/01 07:41:59;;;;;;;50.95;19.88;;;;;;;;;;5112188;28;20543;-52
2021/03/01 07:44:26;;;;;;;38.35;17.77;;;;;;;;;;5105093;28;20175;-49
2021/03/01 07:46:53;;;;;;;89.10;17.92;;;;;;;;;;5112770;28;20846;-51
2021/03/01 07:49:37;;;;;;;69.18;15.73;;;;;;;;;;5117353;28;20211;-49
2021/03/01 07:52:03;;;;;;;42.95;17.75;;;;;;;;;;5117393;28;20178;-48
2021/03/01 07:54:48;;;;;;;38.33;16.17;;;;;;;;;;5117356;28;20177;-49
2021/03/01 07:57:14;;;;;;;61.83;20.50;;;;;;;;;;5116659;28;20167;-49
2021/03/01 07:59:40;;;;;;;45.50;16.97;;;;;;;;;;5111913;28;20205;-50
2021/03/01 08:02:26;;;;;;;67.80;16.65;;;;;;;;;;5112906;28;20402;-50
2021/03/01 08:04:54;;;;;;;38.00;15.90;;;;;;;;;;5093002;28;20172;-49
2021/03/01 08:07:39;;;;;;;30.38;15.35;;;;;;;;;;5110583;28;20178;-49
2021/03/01 08:10:06;;;;;;;55.25;17.75;;;;;;;;;;5111195;28;20176;-49
2021/03/01 08:12:32;;;;;;;47.45;15.55;;;;;;;;;;5111079;28;20204;-50
2021/03/01 08:14:59;;;;;;;52.13;15.63;;;;;;;;;;5110573;28;20202;-53
2021/03/01 08:17:25;;;;;;;37.97;16.02;;;;;;;;;;5111267;28;20421;-49
2021/03/01 08:19:51;;;;;;;37.00;16.37;;;;;;;;;;5111097;28;20201;-49
2021/03/01 08:22:17;;;;;;;45.35;17.83;;;;;;;;;;5110246;28;20810;-49
2021/03/01 08:24:53;;;;;;;45.80;15.50;;;;;;;;;;5111338;28;20225;-49
2021/03/01 08:27:25;;;;;;;71.03;19.15;;;;;;;;;;5111121;28;20401;-49
2021/03/01 08:30:10;;;;;;;45.50;17.00;;;;;;;;;;5111169;28;20246;-49
2021/03/01 08:32:36;;;;;;;37.88;17.27;;;;;;;;;;5111185;28;20182;-51
2021/03/01 08:35:20;;;;;;;41.63;17.80;;;;;;;;;;5111196;28;20168;-51
2021/03/01 08:37:46;;;;;;;50.25;17.45;;;;;;;;;;5110872;28;20397;-50
2021/03/01 08:40:19;;;;;;;42.80;16.63;;;;;;;;;;5111048;28;20196;-49
2021/03/01 08:42:46;;;;;;;42.88;15.30;;;;;;;;;;5110734;28;20175;-50
2021/03/01 08:45:12;;;;;;;42.90;16.73;;;;;;;;;;5111127;28;20193;-49
2021/03/01 08:47:48;;;;;;;36.70;16.88;;;;;;;;;;5110964;28;20552;-50
2021/03/01 08:50:16;;;;;;;49.92;17.08;;;;;;;;;;5111175;28;20179;-51
2021/03/01 08:52:48;;;;;;;34.83;15.88;;;;;;;;;;5104584;28;20778;-50
2021/03/01 08:55:15;;;;;;;41.53;17.40;;;;;;;;;;5096495;28;20189;-50
2021/03/01 08:58:00;;;;;;;30.35;16.00;;;;;;;;;;5103717;28;20247;-49
2021/03/01 09:00:29;;;;;;;25.60;14.27;;;;;;;;;;5110893;28;20682;-50
2021/03/01 09:03:14;;;;;;;27.08;14.95;;;;;;;;;;5110814;28;20175;-50
2021/03/01 09:05:43;;;;;;;24.73;14.90;;;;;;;;;;5109622;28;20192;-52
2021/03/01 09:08:30;;;;;;;26.42;15.82;;;;;;;;;;5092234;28;20196;-49
2021/03/01 09:10:56;;;;;;;27.85;15.65;;;;;;;;;;5110823;28;20425;-49
2021/03/01 09:13:23;;;;;;;33.67;15.65;;;;;;;;;;5110877;28;20172;-50
2021/03/01 09:15:50;;;;;;;37.10;18.33;;;;;;;;;;5110943;28;20165;-51
2021/03/01 09:18:17;;;;;;;41.75;17.42;;;;;;;;;;5110377;28;20196;-50
2021/03/01 09:20:44;;;;;;;30.88;15.82;;;;;;;;;;5110772;28;20371;-51
2021/03/01 09:23:10;;;;;;;33.92;16.95;;;;;;;;;;5109603;28;20231;-49
2021/03/01 09:25:37;;;;;;;35.22;18.00;;;;;;;;;;5110843;28;20678;-49
2021/03/01 09:28:03;;;;;;;28.33;16.15;;;;;;;;;;5110512;28;20254;-52
2021/03/01 09:30:29;;;;;;;32.22;14.25;;;;;;;;;;5110720;28;20177;-49
2021/03/01 09:32:56;;;;;;;38.08;14.80;;;;;;;;;;5111266;28;20620;-50
2021/03/01 09:35:23;;;;;;;25.75;14.75;;;;;;;;;;5110866;28;20173;-50
2021/03/01 09:37:49;;;;;;;26.92;15.35;;;;;;;;;;5110478;28;20239;-50
2021/03/01 09:40:19;;;;;;;25.52;14.27;;;;;;;;;;5093171;28;20236;-50
2021/03/01 09:42:49;;;;;;;33.65;13.70;;;;;;;;;;5090405;28;20196;-51
2021/03/01 09:45:15;;;;;;;23.95;14.93;;;;;;;;;;5090153;28;20165;-50
2021/03/01 09:47:42;;;;;;;30.08;14.32;;;;;;;;;;5090010;28;20166;-51
2021/03/01 09:50:08;;;;;;;25.75;15.15;;;;;;;;;;5090489;28;20181;-50
2021/03/01 09:52:34;;;;;;;27.42;14.32;;;;;;;;;;5090039;28;20178;-50
2021/03/01 09:55:00;;;;;;;29.38;16.05;;;;;;;;;;5093236;28;20170;-50
2021/03/01 09:57:30;;;;;;;26.42;14.73;;;;;;;;;;5093729;28;20173;-50
2021/03/01 09:59:56;;;;;;;22.75;13.20;;;;;;;;;;5093785;28;20250;-50
2021/03/01 10:02:26;;;;;;;23.25;12.65;;;;;;;;;;5093985;28;20586;-49
2021/03/01 10:04:53;;;;;;;24.05;13.65;;;;;;;;;;5094249;28;20165;-50
2021/03/01 10:07:19;;;;;;;22.42;13.00;;;;;;;;;;5093651;28;20232;-50
2021/03/01 10:09:53;;;;;;;28.40;15.48;;;;;;;;;;5104898;28;20205;-50
2021/03/01 10:12:19;;;;;;;29.92;13.27;;;;;;;;;;5100896;28;20184;-51
2021/03/01 10:14:46;;;;;;;24.55;12.25;;;;;;;;;;5117933;28;20216;-51
2021/03/01 10:17:14;;;;;;;22.73;14.85;;;;;;;;;;5119026;28;20172;-49
2021/03/01 10:19:40;;;;;;;24.75;14.68;;;;;;;;;;5119212;28;20288;-49
2021/03/01 10:22:06;;;;;;;30.90;14.33;;;;;;;;;;5120075;28;20831;-50
2021/03/01 10:24:46;;;;;;;23.13;13.70;;;;;;;;;;5101786;28;20500;-50
2021/03/01 10:27:13;;;;;;;20.60;12.90;;;;;;;;;;5097013;28;20180;-49
2021/03/01 10:29:40;;;;;;;24.23;13.93;;;;;;;;;;5093160;28;20193;-53
2021/03/01 10:32:25;;;;;;;22.77;13.05;;;;;;;;;;5092959;28;20193;-49
2021/03/01 10:34:51;;;;;;;21.52;12.15;;;;;;;;;;5092925;28;20165;-50
2021/03/01 10:37:18;;;;;;;23.20;12.35;;;;;;;;;;5092337;28;20165;-51
2021/03/01 10:39:47;;;;;;;24.10;15.00;;;;;;;;;;5092675;28;20288;-49
2021/03/01 10:42:14;;;;;;;24.52;14.63;;;;;;;;;;5092929;28;20173;-50
2021/03/01 10:44:41;;;;;;;23.75;14.50;;;;;;;;;;5092940;28;20231;-50
2021/03/01 10:47:27;;;;;;;26.85;15.38;;;;;;;;;;5092461;28;20795;-50
2021/03/01 10:49:54;;;;;;;24.48;14.70;;;;;;;;;;5092592;28;20600;-50
2021/03/01 10:52:20;;;;;;;24.23;14.65;;;;;;;;;;5092526;28;20227;-51
2021/03/01 10:54:46;;;;;;;22.05;13.63;;;;;;;;;;5092242;28;20264;-50
2021/03/01 10:57:12;;;;;;;19.10;12.82;;;;;;;;;;5092353;28;20694;-50
2021/03/01 10:59:38;;;;;;;21.52;13.43;;;;;;;;;;5092237;28;20216;-50
2021/03/01 11:02:05;;;;;;;25.08;13.90;;;;;;;;;;5092457;28;20292;-49
2021/03/01 11:04:31;;;;;;;24.50;14.38;;;;;;;;;;5091805;28;20161;-53
2021/03/01 11:06:57;;;;;;;24.00;14.35;;;;;;;;;;5092297;28;20784;-51
2021/03/01 11:09:24;;;;;;;31.00;16.30;;;;;;;;;;5092337;28;20284;-52
2021/03/01 11:11:52;;;;;;;26.00;14.00;;;;;;;;;;5092358;28;20471;-51
2021/03/01 11:14:19;;;;;;;26.35;15.52;;;;;;;;;;5092286;28;20170;-52
2021/03/01 11:16:45;;;;;;;28.50;15.80;;;;;;;;;;5091939;28;20174;-50
2021/03/01 11:19:12;;;;;;;35.00;16.70;;;;;;;;;;5091773;28;20212;-50
2021/03/01 11:21:38;;;;;;;36.22;18.23;;;;;;;;;;5092001;28;20172;-50
2021/03/01 11:24:06;;;;;;;35.05;17.92;;;;;;;;;;5091614;28;20172;-49
2021/03/01 11:26:32;;;;;;;31.08;16.40;;;;;;;;;;5107682;28;20177;-51
2021/03/01 11:28:58;;;;;;;30.20;16.70;;;;;;;;;;5112206;28;20226;-52
2021/03/01 11:31:24;;;;;;;26.50;15.23;;;;;;;;;;5112240;28;20655;-52
2021/03/01 11:33:51;;;;;;;33.53;16.88;;;;;;;;;;5112319;28;20410;-50
2021/03/01 11:36:17;;;;;;;37.40;18.43;;;;;;;;;;5112157;28;20163;-49
2021/03/01 11:38:43;;;;;;;31.42;17.90;;;;;;;;;;5112048;28;20514;-49
2021/03/01 11:41:09;;;;;;;32.80;16.83;;;;;;;;;;5112145;28;20164;-50
2021/03/01 11:43:35;;;;;;;29.20;16.27;;;;;;;;;;5111584;28;20388;-50
2021/03/01 11:46:02;;;;;;;27.13;16.87;;;;;;;;;;5111078;28;21182;-49
2021/03/01 11:48:28;;;;;;;22.48;14.50;;;;;;;;;;5111771;28;20425;-50
2021/03/01 11:50:54;;;;;;;28.57;14.30;;;;;;;;;;5111761;28;20173;-52
2021/03/01 11:53:20;;;;;;;25.20;14.10;;;;;;;;;;5112004;28;20409;-49
2021/03/01 11:55:46;;;;;;;22.67;13.73;;;;;;;;;;5094292;28;20426;-49
2021/03/01 11:58:12;;;;;;;23.35;14.57;;;;;;;;;;5099945;28;20454;-53
2021/03/01 12:00:40;;;;;;;24.13;15.82;;;;;;;;;;5093992;28;20202;-53
2021/03/01 12:03:07;;;;;;;25.93;14.83;;;;;;;;;;5099524;28;20648;-52
2021/03/01 12:05:34;;;;;;;25.75;14.75;;;;;;;;;;5111663;28;20870;-50
2021/03/01 12:08:00;;;;;;;21.50;14.00;;;;;;;;;;5111304;28;20185;-50
2021/03/01 12:10:26;;;;;;;23.27;14.77;;;;;;;;;;5111772;28;20751;-49
2021/03/01 12:12:52;;;;;;;23.33;14.33;;;;;;;;;;5111454;28;20410;-49
2021/03/01 12:15:18;;;;;;;26.30;15.13;;;;;;;;;;5111508;28;20403;-50
2021/03/01 12:17:44;;;;;;;25.47;14.30;;;;;;;;;;5092681;28;20457;-49
2021/03/01 12:20:10;;;;;;;35.80;16.37;;;;;;;;;;5111231;28;20460;-49
2021/03/01 12:22:36;;;;;;;24.10;14.33;;;;;;;;;;5111418;28;20439;-49
2021/03/01 12:25:04;;;;;;;18.60;13.27;;;;;;;;;;5110074;28;20454;-50
2021/03/01 12:27:30;;;;;;;19.30;12.50;;;;;;;;;;5111088;28;20844;-50
2021/03/01 12:29:56;;;;;;;18.30;12.40;;;;;;;;;;5110944;28;20447;-52
2021/03/01 12:32:22;;;;;;;18.67;13.70;;;;;;;;;;5111346;28;20831;-50
2021/03/01 12:34:48;;;;;;;21.53;13.70;;;;;;;;;;5111096;28;20411;-50
2021/03/01 12:37:14;;;;;;;19.63;14.80;;;;;;;;;;5110689;28;20400;-49
2021/03/01 12:39:40;;;;;;;24.93;13.77;;;;;;;;;;5110765;28;20452;-50
2021/03/01 12:42:07;;;;;;;23.47;14.50;;;;;;;;;;5111069;28;20917;-50
2021/03/01 12:44:33;;;;;;;26.73;16.00;;;;;;;;;;5111020;28;20405;-51
2021/03/01 12:46:59;;;;;;;23.73;13.80;;;;;;;;;;5110752;28;20907;-50
2021/03/01 12:49:25;;;;;;;18.27;12.50;;;;;;;;;;5110954;28;20427;-49
2021/03/01 12:51:51;;;;;;;25.67;14.30;;;;;;;;;;5110946;28;20408;-50
2021/03/01 12:54:17;;;;;;;17.87;12.80;;;;;;;;;;5103965;28;21077;-50
2021/03/01 12:56:43;;;;;;;24.30;14.53;;;;;;;;;;5110483;28;20464;-50
2021/03/01 12:59:10;;;;;;;23.37;14.60;;;;;;;;;;5110373;28;20491;-50
2021/03/01 13:01:36;;;;;;;19.67;12.70;;;;;;;;;;5111027;28;20410;-51
2021/03/01 13:04:02;;;;;;;22.27;14.37;;;;;;;;;;5109695;28;20410;-52
2021/03/01 13:06:28;;;;;;;21.33;13.87;;;;;;;;;;5110888;28;20476;-50
2021/03/01 13:08:54;;;;;;;19.00;13.13;;;;;;;;;;5110572;28;20523;-52
2021/03/01 13:11:20;;;;;;;20.60;13.37;;;;;;;;;;5110931;28;20397;-51
2021/03/01 13:13:47;;;;;;;20.40;13.50;;;;;;;;;;5110767;28;20396;-50
2021/03/01 13:16:13;;;;;;;21.60;12.30;;;;;;;;;;5110761;28;20391;-49
2021/03/01 13:18:39;;;;;;;23.07;13.10;;;;;;;;;;5110542;28;20513;-49
2021/03/01 13:21:05;;;;;;;20.07;12.90;;;;;;;;;;5110611;28;20396;-49
2021/03/01 13:23:33;;;;;;;22.53;13.50;;;;;;;;;;5110935;28;20952;-49
2021/03/01 13:25:59;;;;;;;19.83;12.93;;;;;;;;;;5092304;28;20468;-50
2021/03/01 13:28:26;;;;;;;20.77;13.70;;;;;;;;;;5092180;28;20448;-49
2021/03/01 13:30:52;;;;;;;24.20;17.50;;;;;;;;;;5094455;28;21035;-49
2021/03/01 13:33:18;;;;;;;19.73;12.90;;;;;;;;;;5094220;28;20410;-49
2021/03/01 13:35:44;;;;;;;16.57;13.03;;;;;;;;;;5094199;28;20400;-51
2021/03/01 13:38:10;;;;;;;18.97;13.80;;;;;;;;;;5093876;28;20423;-51
2021/03/01 13:40:36;;;;;;;23.90;14.33;;;;;;;;;;5094050;28;20452;-51
2021/03/01 13:43:02;;;;;;;18.77;13.53;;;;;;;;;;5093945;28;20551;-49
2021/03/01 13:45:28;;;;;;;22.73;13.17;;;;;;;;;;5093990;28;20407;-52
2021/03/01 13:47:54;;;;;;;18.53;12.40;;;;;;;;;;5093560;28;20461;-52
2021/03/01 13:50:20;;;;;;;18.80;13.13;;;;;;;;;;5094019;28;20403;-49
2021/03/01 13:52:47;;;;;;;22.20;13.90;;;;;;;;;;5093833;28;20410;-50
2021/03/01 13:55:16;;;;;;;22.13;14.13;;;;;;;;;;5093654;28;20432;-52
2021/03/01 13:57:42;;;;;;;22.67;14.50;;;;;;;;;;5093226;28;20400;-50
2021/03/01 14:00:10;;;;;;;19.70;14.37;;;;;;;;;;5093729;28;20492;-50
2021/03/01 14:02:37;;;;;;;19.33;13.10;;;;;;;;;;5093734;28;20407;-49
2021/03/01 14:05:04;;;;;;;19.70;13.07;;;;;;;;;;5093610;28;20399;-52
2021/03/01 14:07:30;;;;;;;20.50;14.20;;;;;;;;;;5093436;28;20400;-49
2021/03/01 14:09:56;;;;;;;25.17;14.50;;;;;;;;;;5093360;28;20506;-49
2021/03/01 14:12:22;;;;;;;19.37;12.90;;;;;;;;;;5093621;28;20444;-50
2021/03/01 14:14:49;;;;;;;17.60;11.73;;;;;;;;;;5093363;28;20397;-50
2021/03/01 14:17:15;;;;;;;22.70;12.90;;;;;;;;;;5093365;28;20404;-50
2021/03/01 14:19:41;;;;;;;15.90;12.03;;;;;;;;;;5093483;28;20462;-50